Time;durP1;ratioP1;P1;durP2;ratioP2;P2;SDS_P1;SDS_P2;PMS_P1;PMS_P2;Temp;Humidity;BMP_temperature;BMP_pressure;BME280_temperature;BME280_humidity;BME280_pressure;Samples;Min_cycle;Max_cycle;Signal;HPM_P1;HPM_P2
2021/11/17 02:28:17;;;;;;;7.63;6.70;;;6.70;99.90;;;;;;4999487;28;20484;-66
2021/11/17 02:30:43;;;;;;;8.27;6.70;;;6.70;99.90;;;;;;4994770;28;20419;-66
2021/11/17 02:33:18;;;;;;;8.57;6.20;;;6.70;99.90;;;;;;4994360;28;20454;-66
2021/11/17 02:35:50;;;;;;;7.93;6.13;;;6.80;99.90;;;;;;5001512;28;20448;-66
2021/11/17 02:38:18;;;;;;;9.93;7.67;;;6.80;99.90;;;;;;4994237;28;20430;-66
2021/11/17 02:41:11;;;;;;;11.10;7.83;;;6.80;99.90;;;;;;4994787;28;20943;-66
2021/11/17 02:44:07;;;;;;;8.80;7.90;;;6.80;99.90;;;;;;4994537;28;20439;-66
2021/11/17 02:47:03;;;;;;;14.37;7.63;;;7.00;99.90;;;;;;5001013;28;20438;-66
2021/11/17 02:49:52;;;;;;;8.07;7.27;;;7.00;99.90;;;;;;4993035;28;20470;-66
2021/11/17 02:52:30;;;;;;;8.83;7.67;;;7.00;99.90;;;;;;4994165;28;20450;-66
2021/11/17 02:55:26;;;;;;;10.30;6.47;;;7.00;99.90;;;;;;4994124;28;20569;-66
2021/11/17 02:58:19;;;;;;;7.67;6.70;;;7.00;99.90;;;;;;4988033;28;20530;-66
2021/11/17 03:00:59;;;;;;;9.57;8.10;;;6.80;99.90;;;;;;4993956;28;20457;-66
2021/11/17 03:03:55;;;;;;;9.07;7.07;;;6.80;99.90;;;;;;4996989;28;20438;-66
2021/11/17 03:06:44;;;;;;;9.40;7.70;;;6.80;99.90;;;;;;4996482;28;20442;-66
2021/11/17 03:09:17;;;;;;;10.00;7.80;;;6.80;99.90;;;;;;4994014;28;20931;-66
2021/11/17 03:11:58;;;;;;;9.10;8.17;;;6.80;99.90;;;;;;5025271;28;20522;-66
2021/11/17 03:14:23;;;;;;;10.40;7.87;;;6.80;99.90;;;;;;4997141;28;20478;-66
2021/11/17 03:17:16;;;;;;;10.23;8.20;;;6.70;99.90;;;;;;4994999;28;20780;-66
2021/11/17 03:19:48;;;;;;;9.00;7.10;;;6.70;99.90;;;;;;4994670;28;20200;-66
2021/11/17 03:22:26;;;;;;;9.10;8.00;;;6.70;99.90;;;;;;4998432;28;20413;-66
2021/11/17 03:25:26;;;;;;;12.17;8.67;;;6.80;99.90;;;;;;4993599;28;20533;-66
2021/11/17 03:28:15;;;;;;;10.70;7.87;;;6.90;99.90;;;;;;4993414;28;20445;-66
2021/11/17 03:30:44;;;;;;;10.30;7.43;;;6.90;99.90;;;;;;4986986;28;20439;-66
2021/11/17 03:33:28;;;;;;;7.60;6.50;;;6.80;99.90;;;;;;4994645;28;20473;-66
2021/11/17 03:36:32;;;;;;;9.47;7.47;;;6.90;99.90;;;;;;4993596;28;20594;-66
2021/11/17 03:39:19;;;;;;;8.60;7.37;;;6.90;99.90;;;;;;4962625;28;20470;-66
2021/11/17 03:41:59;;;;;;;7.83;6.70;;;6.80;99.90;;;;;;4993387;28;20434;-66
2021/11/17 03:44:58;;;;;;;8.47;7.23;;;6.80;99.90;;;;;;4993065;28;20801;-66
2021/11/17 03:48:02;;;;;;;10.23;9.07;;;6.80;99.90;;;;;;4996721;28;20784;-66
2021/11/17 03:50:53;;;;;;;8.40;6.87;;;6.90;99.90;;;;;;4995136;28;20485;-66
2021/11/17 03:53:36;;;;;;;7.37;5.90;;;6.80;99.90;;;;;;4981075;28;20451;-66
2021/11/17 03:56:32;;;;;;;12.90;8.23;;;6.80;99.90;;;;;;4993230;28;20431;-66
2021/11/17 03:59:03;;;;;;;12.67;7.37;;;6.80;99.90;;;;;;4999365;28;20528;-66
2021/11/17 04:01:34;;;;;;;10.13;8.17;;;6.70;99.90;;;;;;4996357;28;20815;-66
2021/11/17 04:04:21;;;;;;;10.47;7.60;;;6.70;99.90;;;;;;4992604;28;20427;-66
2021/11/17 04:06:58;;;;;;;10.20;7.47;;;6.80;99.90;;;;;;4992840;28;20799;-66
2021/11/17 04:09:45;;;;;;;9.07;7.83;;;6.90;99.90;;;;;;4995043;28;20533;-66
2021/11/17 04:12:11;;;;;;;7.87;7.07;;;6.90;99.90;;;;;;4993019;28;20434;-66
2021/11/17 04:15:11;;;;;;;9.17;7.60;;;6.80;99.90;;;;;;4992932;28;20525;-66
2021/11/17 04:18:09;;;;;;;7.97;6.77;;;6.70;99.90;;;;;;4990372;28;20437;-66
2021/11/17 04:20:54;;;;;;;7.63;6.60;;;6.60;99.90;;;;;;4988426;28;21113;-66
2021/11/17 04:23:33;;;;;;;8.40;5.90;;;6.50;99.90;;;;;;4991126;28;20426;-66
2021/11/17 04:26:23;;;;;;;9.47;7.57;;;6.40;99.90;;;;;;4991701;28;20469;-66
2021/11/17 04:29:21;;;;;;;8.93;6.60;;;6.40;99.90;;;;;;4987670;28;20458;-66
2021/11/17 04:32:11;;;;;;;10.07;7.30;;;6.30;99.90;;;;;;4984397;28;20558;-66
2021/11/17 04:34:44;;;;;;;8.87;6.90;;;6.20;99.90;;;;;;4992345;28;20545;-66
2021/11/17 04:37:29;;;;;;;7.40;6.33;;;6.20;99.90;;;;;;4996578;28;20433;-66
2021/11/17 04:40:15;;;;;;;7.73;6.67;;;6.20;99.90;;;;;;4995196;28;20849;-67
2021/11/17 04:42:52;;;;;;;12.10;9.77;;;6.20;99.90;;;;;;4992219;28;20438;-67
2021/11/17 04:45:39;;;;;;;8.27;6.23;;;6.20;99.90;;;;;;4992395;28;20438;-67
2021/11/17 04:48:24;;;;;;;7.70;6.27;;;6.30;99.90;;;;;;4992384;28;20950;-67
2021/11/17 04:50:59;;;;;;;10.10;7.20;;;6.30;99.90;;;;;;4992300;28;20959;-67
2021/11/17 04:53:36;;;;;;;7.60;6.10;;;6.30;99.90;;;;;;4991921;28;20461;-67
2021/11/17 04:56:21;;;;;;;9.30;5.80;;;6.30;99.90;;;;;;4992401;28;20812;-67
2021/11/17 04:59:24;;;;;;;7.90;6.10;;;6.30;99.90;;;;;;4991838;28;20603;-67
2021/11/17 05:02:10;;;;;;;8.97;6.07;;;6.30;99.90;;;;;;4992137;28;20699;-67
2021/11/17 05:04:59;;;;;;;6.90;6.20;;;6.20;99.90;;;;;;4994179;28;20430;-67
2021/11/17 05:07:42;;;;;;;7.87;6.50;;;6.30;99.90;;;;;;4995478;28;20437;-67
2021/11/17 05:10:26;;;;;;;9.77;6.10;;;6.30;99.90;;;;;;4992018;28;20469;-67
2021/11/17 05:13:06;;;;;;;7.73;6.03;;;6.30;99.90;;;;;;4993314;28;20430;-67
2021/11/17 05:15:47;;;;;;;10.00;6.07;;;6.40;99.90;;;;;;4992646;28;20966;-66
2021/11/17 05:18:30;;;;;;;7.50;6.70;;;6.40;99.90;;;;;;4995380;28;20472;-67
2021/11/17 05:21:21;;;;;;;8.40;6.47;;;6.40;99.90;;;;;;4998463;28;20430;-67
2021/11/17 05:23:53;;;;;;;9.50;5.67;;;6.50;99.90;;;;;;4997956;28;20439;-67
2021/11/17 05:26:31;;;;;;;7.60;5.70;;;6.50;99.90;;;;;;4996700;28;20967;-67
2021/11/17 05:29:15;;;;;;;8.40;6.07;;;6.60;99.90;;;;;;4995556;28;20505;-67
2021/11/17 05:32:14;;;;;;;10.60;7.30;;;6.70;99.90;;;;;;4999415;28;20520;-67
2021/11/17 05:34:49;;;;;;;7.20;6.50;;;6.60;99.90;;;;;;4994723;28;21041;-67
2021/11/17 05:37:33;;;;;;;11.93;7.80;;;6.70;99.90;;;;;;4998211;28;21043;-67
2021/11/17 05:40:16;;;;;;;8.53;5.63;;;6.70;99.90;;;;;;4991892;28;20467;-67
2021/11/17 05:43:42;;;;;;;9.10;6.70;;;6.70;99.90;;;;;;4994263;28;20427;-67
2021/11/17 05:46:38;;;;;;;7.67;6.50;;;6.70;99.90;;;;;;4954468;29;20431;-67
2021/11/17 05:49:31;;;;;;;9.80;6.10;;;6.80;99.90;;;;;;4973343;28;20447;-67
2021/11/17 05:51:59;;;;;;;9.10;7.17;;;6.70;99.90;;;;;;5003285;28;20430;-67
2021/11/17 05:54:37;;;;;;;8.67;6.40;;;6.80;99.90;;;;;;4995339;28;21094;-67
2021/11/17 05:57:22;;;;;;;8.60;6.93;;;6.80;99.90;;;;;;5001290;28;20837;-67
2021/11/17 05:59:51;;;;;;;8.20;6.23;;;6.90;99.90;;;;;;4997339;28;20451;-67
2021/11/17 06:02:50;;;;;;;7.10;6.00;;;6.90;99.90;;;;;;4999146;28;20845;-67
2021/11/17 06:05:15;;;;;;;7.57;6.60;;;6.80;99.90;;;;;;4995012;28;20422;-66
2021/11/17 06:07:41;;;;;;;7.60;5.70;;;6.80;99.90;;;;;;4994812;28;20434;-67
2021/11/17 06:10:17;;;;;;;7.27;5.93;;;6.90;99.90;;;;;;4994860;28;20195;-67
2021/11/17 06:12:43;;;;;;;7.77;6.43;;;6.80;99.90;;;;;;4994681;28;20179;-67
2021/11/17 06:15:12;;;;;;;8.07;5.67;;;6.80;99.90;;;;;;4994922;28;20461;-67
2021/11/17 06:17:39;;;;;;;6.93;5.90;;;6.80;99.90;;;;;;4994346;28;20434;-67
2021/11/17 06:20:08;;;;;;;7.50;6.30;;;6.80;99.90;;;;;;4994739;28;20509;-67
2021/11/17 06:22:35;;;;;;;10.37;7.60;;;6.90;99.90;;;;;;4993117;28;20480;-67
2021/11/17 06:25:07;;;;;;;7.97;6.40;;;6.80;99.90;;;;;;4994819;28;20442;-67
2021/11/17 06:27:37;;;;;;;9.47;6.70;;;6.90;99.90;;;;;;4994011;28;21363;-67
2021/11/17 06:30:09;;;;;;;6.17;5.40;;;6.90;99.90;;;;;;4994488;28;20457;-67
2021/11/17 06:32:34;;;;;;;8.43;6.23;;;6.90;99.90;;;;;;4994600;28;20442;-67
2021/11/17 06:35:01;;;;;;;7.40;5.67;;;7.00;99.90;;;;;;4994689;28;20459;-67
2021/11/17 06:37:29;;;;;;;8.10;6.87;;;6.90;99.90;;;;;;4995858;28;20172;-67
2021/11/17 06:40:00;;;;;;;9.43;6.47;;;6.90;99.90;;;;;;5004655;28;21049;-67
2021/11/17 06:42:36;;;;;;;7.93;5.90;;;7.00;99.90;;;;;;5000828;28;20463;-67
2021/11/17 06:45:08;;;;;;;6.57;5.93;;;7.00;99.90;;;;;;4998512;28;20437;-67
2021/11/17 06:47:34;;;;;;;5.33;4.43;;;7.00;99.90;;;;;;4995043;28;20435;-67
2021/11/17 06:49:59;;;;;;;6.20;5.60;;;6.90;99.90;;;;;;5008345;28;20472;-67
2021/11/17 06:52:25;;;;;;;9.10;5.83;;;6.90;99.90;;;;;;4997275;28;20191;-67
2021/11/17 06:54:51;;;;;;;7.00;5.60;;;7.00;99.90;;;;;;4997331;28;20200;-67
2021/11/17 06:57:20;;;;;;;8.07;5.63;;;6.90;99.90;;;;;;4993878;28;20186;-67
2021/11/17 06:59:47;;;;;;;6.27;4.87;;;7.00;99.90;;;;;;4994066;28;20513;-66
2021/11/17 07:02:12;;;;;;;6.17;4.40;;;7.00;99.90;;;;;;4995547;28;20460;-67
2021/11/17 07:04:38;;;;;;;6.47;5.07;;;7.00;99.90;;;;;;4990067;28;20432;-67
2021/11/17 07:07:06;;;;;;;6.43;4.70;;;7.00;99.90;;;;;;4993589;28;20175;-67
2021/11/17 07:09:31;;;;;;;8.40;5.47;;;7.00;99.90;;;;;;4993761;28;20569;-67
2021/11/17 07:11:57;;;;;;;6.90;4.60;;;6.90;99.90;;;;;;4993931;28;20438;-67
2021/11/17 07:14:23;;;;;;;5.90;4.97;;;7.00;99.90;;;;;;4993768;28;20203;-67
2021/11/17 07:16:50;;;;;;;6.17;5.00;;;7.10;99.90;;;;;;4993574;28;20167;-67
2021/11/17 07:19:23;;;;;;;6.90;4.60;;;7.20;99.90;;;;;;4993117;28;20841;-67
2021/11/17 07:21:50;;;;;;;6.70;4.50;;;7.10;99.90;;;;;;4993472;28;20438;-67
2021/11/17 07:24:16;;;;;;;5.90;4.83;;;7.10;99.90;;;;;;4998237;28;20439;-67
2021/11/17 07:26:42;;;;;;;6.80;5.60;;;7.10;99.90;;;;;;5000821;28;20945;-67
2021/11/17 07:29:07;;;;;;;8.57;5.93;;;7.10;99.90;;;;;;4991793;28;20241;-67
2021/11/17 07:31:33;;;;;;;8.30;5.80;;;7.10;99.90;;;;;;4990516;28;20213;-67
2021/11/17 07:33:58;;;;;;;8.77;5.00;;;7.20;99.90;;;;;;4983556;28;20712;-67
2021/11/17 07:36:24;;;;;;;7.87;5.80;;;7.20;99.90;;;;;;4991544;28;20602;-67
2021/11/17 07:38:49;;;;;;;6.47;4.40;;;7.20;99.90;;;;;;4972008;28;20223;-67
2021/11/17 07:41:15;;;;;;;7.20;5.40;;;7.20;99.90;;;;;;4962068;28;20191;-67
2021/11/17 07:43:41;;;;;;;6.10;5.50;;;7.20;99.90;;;;;;4995530;28;20193;-68
2021/11/17 07:46:06;;;;;;;6.30;5.60;;;7.30;99.90;;;;;;4989876;28;20442;-68
2021/11/17 07:48:32;;;;;;;6.90;5.10;;;7.20;99.90;;;;;;4986499;28;20203;-67
2021/11/17 07:50:59;;;;;;;10.27;7.20;;;7.20;99.90;;;;;;4989929;28;20187;-67
2021/11/17 07:53:27;;;;;;;10.83;7.50;;;7.10;99.90;;;;;;4989615;28;20241;-68
2021/11/17 07:55:54;;;;;;;6.27;4.70;;;7.00;99.90;;;;;;4970927;28;20878;-68
2021/11/17 07:58:22;;;;;;;8.83;6.13;;;7.10;99.90;;;;;;4975963;28;20458;-67
2021/11/17 08:00:51;;;;;;;7.17;6.13;;;7.00;99.90;;;;;;4982746;28;21483;-67
2021/11/17 08:03:18;;;;;;;7.63;5.57;;;7.00;99.90;;;;;;4989498;28;20441;-66
2021/11/17 08:05:47;;;;;;;6.23;4.77;;;7.00;99.90;;;;;;4989303;28;20438;-67
2021/11/17 08:08:13;;;;;;;6.63;5.40;;;7.10;99.90;;;;;;4990044;28;20438;-66
2021/11/17 08:10:41;;;;;;;6.00;4.93;;;7.10;99.90;;;;;;4990009;28;20473;-66
2021/11/17 08:13:07;;;;;;;9.03;4.87;;;6.90;99.90;;;;;;4982083;28;20470;-66
2021/11/17 08:15:33;;;;;;;8.27;5.70;;;6.90;99.90;;;;;;4988695;28;20435;-67
2021/11/17 08:17:58;;;;;;;6.63;5.93;;;7.00;99.90;;;;;;4988393;28;20218;-66
2021/11/17 08:20:24;;;;;;;5.83;4.70;;;6.90;99.90;;;;;;4988875;28;20454;-67
2021/11/17 08:22:53;;;;;;;7.40;5.60;;;6.90;99.90;;;;;;4989257;28;20179;-66
2021/11/17 08:25:21;;;;;;;6.73;4.80;;;6.90;99.90;;;;;;4989421;28;20267;-67
2021/11/17 08:27:46;;;;;;;9.13;5.30;;;7.00;99.90;;;;;;4988354;28;20442;-66
2021/11/17 08:30:15;;;;;;;5.70;4.70;;;7.00;99.90;;;;;;4989778;28;21290;-67
2021/11/17 08:32:43;;;;;;;7.20;4.73;;;7.10;99.90;;;;;;4988592;28;20244;-66
2021/11/17 08:35:10;;;;;;;6.00;5.40;;;7.30;99.90;;;;;;4988712;28;20556;-66
2021/11/17 08:37:37;;;;;;;7.07;5.03;;;7.30;99.90;;;;;;4993234;28;20438;-66
2021/11/17 08:40:23;;;;;;;17.67;10.20;;;7.30;99.90;;;;;;4988856;28;21121;-66
2021/11/17 08:42:49;;;;;;;7.10;5.00;;;7.20;99.90;;;;;;4988358;28;20795;-66
2021/11/17 08:45:16;;;;;;;8.60;6.50;;;7.10;99.90;;;;;;4989039;28;20458;-67
2021/11/17 08:47:43;;;;;;;6.10;4.83;;;7.20;99.90;;;;;;4984633;28;20180;-67
2021/11/17 08:50:12;;;;;;;5.53;4.63;;;7.20;99.90;;;;;;4988557;28;20569;-66
2021/11/17 08:52:39;;;;;;;7.30;4.40;;;7.40;99.90;;;;;;4988801;28;20431;-67
2021/11/17 08:55:05;;;;;;;5.60;4.10;;;7.40;99.90;;;;;;4988820;28;20521;-67
2021/11/17 08:57:31;;;;;;;5.67;4.67;;;7.30;99.90;;;;;;4993408;28;20462;-67
2021/11/17 08:59:57;;;;;;;4.63;4.00;;;7.30;99.90;;;;;;4988409;28;20501;-67
2021/11/17 09:02:23;;;;;;;3.70;3.40;;;7.40;99.90;;;;;;4986861;28;20431;-66
2021/11/17 09:04:48;;;;;;;4.17;3.37;;;7.30;99.90;;;;;;4988021;28;20187;-67
2021/11/17 09:07:15;;;;;;;4.20;3.77;;;7.10;99.90;;;;;;4988488;28;20245;-67
2021/11/17 09:09:41;;;;;;;4.77;3.60;;;7.00;99.90;;;;;;4988176;28;20265;-66
2021/11/17 09:12:08;;;;;;;5.47;4.60;;;6.90;99.90;;;;;;5000599;28;20982;-66
2021/11/17 09:14:33;;;;;;;5.07;4.17;;;7.00;99.90;;;;;;4989721;28;20497;-66
2021/11/17 09:16:59;;;;;;;8.03;5.23;;;7.10;99.90;;;;;;4988531;28;20782;-66
2021/11/17 09:19:25;;;;;;;4.23;3.70;;;7.00;99.90;;;;;;4988522;28;20663;-66
2021/11/17 09:21:51;;;;;;;6.03;4.67;;;7.00;99.90;;;;;;4990053;28;20195;-66
2021/11/17 09:24:19;;;;;;;6.27;3.47;;;6.90;99.90;;;;;;4988614;28;20225;-67
2021/11/17 09:26:46;;;;;;;3.67;3.20;;;7.00;99.90;;;;;;4991262;28;20457;-67
2021/11/17 09:29:13;;;;;;;2.73;2.33;;;6.90;99.90;;;;;;4988644;28;20454;-66
2021/11/17 09:31:41;;;;;;;3.53;2.30;;;6.90;99.90;;;;;;4988350;28;20449;-66
2021/11/17 09:34:08;;;;;;;2.97;2.70;;;6.90;99.90;;;;;;4988686;28;20473;-66
2021/11/17 09:36:37;;;;;;;3.23;2.10;;;6.80;99.90;;;;;;4988488;28;20478;-66
2021/11/17 09:39:09;;;;;;;3.30;2.13;;;6.90;99.90;;;;;;4996999;28;20850;-66
2021/11/17 09:41:44;;;;;;;3.90;2.63;;;7.00;99.90;;;;;;4990808;28;20434;-66
2021/11/17 09:44:14;;;;;;;2.43;2.03;;;7.10;99.90;;;;;;4984767;28;20503;-66
2021/11/17 09:46:41;;;;;;;2.20;1.60;;;7.10;99.90;;;;;;4987623;28;20967;-66
2021/11/17 09:49:13;;;;;;;2.63;1.77;;;7.00;99.90;;;;;;4987628;28;20463;-66
2021/11/17 09:51:44;;;;;;;2.63;1.87;;;6.90;99.90;;;;;;4988157;28;20450;-66
2021/11/17 09:54:14;;;;;;;4.87;3.37;;;6.80;99.90;;;;;;4988591;28;20466;-66
2021/11/17 09:56:50;;;;;;;3.20;2.07;;;6.90;99.90;;;;;;4988157;28;20525;-66
2021/11/17 09:59:20;;;;;;;5.70;4.80;;;6.90;99.90;;;;;;4981825;28;20466;-67
2021/11/17 10:01:53;;;;;;;2.27;2.07;;;6.90;99.90;;;;;;4987879;28;20533;-66
2021/11/17 10:04:32;;;;;;;3.07;2.77;;;7.10;99.90;;;;;;4991506;28;20442;-66
2021/11/17 10:07:28;;;;;;;3.30;2.60;;;7.00;99.90;;;;;;4988597;28;20697;-66
2021/11/17 10:13:08;;;;;;;2.40;1.90;;;7.10;99.90;;;;;;4995969;28;20434;-66
2021/11/17 10:15:35;;;;;;;2.63;1.83;;;7.30;99.90;;;;;;4984557;28;20442;-70
2021/11/17 10:18:30;;;;;;;4.77;2.60;;;7.40;99.90;;;;;;4991536;28;20977;-67
2021/11/17 10:21:01;;;;;;;5.70;2.77;;;7.30;99.90;;;;;;4993881;28;20465;-66
2021/11/17 10:23:30;;;;;;;2.57;2.37;;;7.40;99.90;;;;;;4998535;28;20955;-66
2021/11/17 10:26:04;;;;;;;2.07;1.73;;;7.40;99.90;;;;;;5002052;28;20427;-67
2021/11/17 10:28:31;;;;;;;2.50;2.00;;;7.20;99.90;;;;;;4990879;28;20473;-67
2021/11/17 10:31:10;;;;;;;3.83;2.10;;;7.10;99.90;;;;;;4995216;28;20447;-67
2021/11/17 10:33:53;;;;;;;2.73;2.53;;;7.10;99.90;;;;;;4993710;28;20474;-67
2021/11/17 10:36:28;;;;;;;4.30;3.90;;;7.10;99.90;;;;;;4994546;28;20533;-67
2021/11/17 10:39:09;;;;;;;3.20;2.50;;;7.10;99.90;;;;;;4997329;28;20468;-67
2021/11/17 10:41:35;;;;;;;2.10;1.87;;;7.10;99.90;;;;;;4995491;28;20454;-68
2021/11/17 10:44:05;;;;;;;4.80;2.40;;;7.20;99.90;;;;;;4996613;28;20445;-67
2021/11/17 10:46:44;;;;;;;1.63;1.53;;;7.40;99.90;;;;;;4994089;28;20439;-67
2021/11/17 10:49:14;;;;;;;2.20;2.00;;;7.40;99.90;;;;;;4993810;28;20466;-66
2021/11/17 10:51:54;;;;;;;2.10;1.97;;;7.30;99.90;;;;;;4994049;28;20446;-66
2021/11/17 10:54:23;;;;;;;10.40;7.80;;;7.40;99.90;;;;;;4994737;28;20856;-67
2021/11/17 10:57:10;;;;;;;3.20;2.90;;;7.70;99.90;;;;;;4994911;28;20434;-67
2021/11/17 10:59:37;;;;;;;4.20;1.80;;;8.00;99.90;;;;;;4993302;28;20454;-67
2021/11/17 11:02:04;;;;;;;4.47;3.50;;;8.30;99.90;;;;;;4995596;28;20450;-67
2021/11/17 11:04:37;;;;;;;3.37;3.07;;;8.20;99.90;;;;;;4993665;28;20483;-66
2021/11/17 11:07:18;;;;;;;3.60;3.20;;;8.10;99.90;;;;;;4992974;28;20518;-67
2021/11/17 11:09:55;;;;;;;2.43;2.23;;;8.10;99.90;;;;;;4997840;28;20454;-67
2021/11/17 11:12:25;;;;;;;1.90;1.80;;;8.10;99.90;;;;;;5013535;28;20417;-68
2021/11/17 11:14:55;;;;;;;5.50;2.17;;;8.10;99.90;;;;;;4999717;28;20501;-67
2021/11/17 11:17:30;;;;;;;2.00;1.77;;;7.80;99.90;;;;;;4993551;28;20783;-67
2021/11/17 11:20:17;;;;;;;2.20;2.00;;;7.70;99.90;;;;;;4993828;28;20454;-67
2021/11/17 11:23:04;;;;;;;5.20;4.10;;;7.80;99.90;;;;;;4993736;28;20414;-67
2021/11/17 11:25:39;;;;;;;2.67;1.70;;;7.80;99.90;;;;;;4994080;28;20871;-67
2021/11/17 11:28:19;;;;;;;1.70;1.50;;;7.70;99.90;;;;;;4993637;28;20425;-67
2021/11/17 11:30:46;;;;;;;1.80;1.57;;;7.50;99.90;;;;;;4993735;28;20576;-66
2021/11/17 11:33:19;;;;;;;1.97;1.73;;;7.60;99.90;;;;;;4992245;28;20967;-67
2021/11/17 11:36:11;;;;;;;1.60;1.43;;;7.40;99.90;;;;;;4993747;28;20785;-67
2021/11/17 11:38:40;;;;;;;1.60;1.47;;;7.40;99.90;;;;;;4987917;28;20474;-66
2021/11/17 11:41:17;;;;;;;1.33;1.23;;;7.40;99.90;;;;;;4988549;28;20470;-67
2021/11/17 11:43:44;;;;;;;1.50;1.40;;;7.50;99.90;;;;;;4990367;28;20426;-67
2021/11/17 11:46:19;;;;;;;1.60;1.50;;;7.30;99.90;;;;;;4990357;28;20869;-67
2021/11/17 11:48:59;;;;;;;2.70;2.00;;;7.20;99.90;;;;;;4991253;28;20500;-67
2021/11/17 11:51:38;;;;;;;1.23;1.13;;;7.30;99.90;;;;;;4990595;28;20438;-67
2021/11/17 11:54:27;;;;;;;2.10;1.60;;;7.50;99.90;;;;;;4985909;28;20542;-66
2021/11/17 11:57:13;;;;;;;1.80;1.27;;;7.60;99.90;;;;;;4988546;28;20906;-67
2021/11/17 11:59:40;;;;;;;2.40;2.10;;;7.50;99.90;;;;;;4982972;28;20458;-68
2021/11/17 12:02:17;;;;;;;3.00;2.50;;;7.50;99.90;;;;;;4997617;28;20442;-67
2021/11/17 12:04:50;;;;;;;3.57;3.27;;;7.50;99.90;;;;;;4992724;28;20522;-67
2021/11/17 12:07:22;;;;;;;1.30;1.20;;;7.60;99.90;;;;;;5003856;28;20434;-66
2021/11/17 12:09:59;;;;;;;1.50;1.40;;;7.60;99.90;;;;;;5000402;28;20469;-65
2021/11/17 12:12:31;;;;;;;1.90;1.43;;;7.60;99.90;;;;;;5009068;28;20425;-66
2021/11/17 12:15:34;;;;;;;1.70;1.50;;;7.80;99.90;;;;;;5003480;28;20545;-67
2021/11/17 12:18:13;;;;;;;1.70;1.60;;;7.80;99.90;;;;;;4983260;28;20430;-67
2021/11/17 12:20:46;;;;;;;1.60;1.50;;;7.50;99.90;;;;;;4988923;28;20430;-66
2021/11/17 12:23:19;;;;;;;1.60;1.50;;;7.50;99.90;;;;;;4989191;28;20570;-66
2021/11/17 12:26:07;;;;;;;1.90;1.67;;;7.50;99.90;;;;;;4988232;28;20438;-67
2021/11/17 12:28:34;;;;;;;1.80;1.70;;;7.30;99.90;;;;;;4989861;28;20453;-67
2021/11/17 12:31:07;;;;;;;1.80;1.70;;;7.30;99.90;;;;;;4989106;28;20438;-66
2021/11/17 12:33:35;;;;;;;1.70;1.60;;;7.20;99.90;;;;;;4990303;28;20613;-68
2021/11/17 12:36:10;;;;;;;2.13;1.87;;;7.20;99.90;;;;;;4999690;28;20430;-68
2021/11/17 12:38:36;;;;;;;1.93;1.83;;;7.20;99.90;;;;;;4994014;28;20472;-67
2021/11/17 12:41:23;;;;;;;2.60;1.80;;;7.30;99.90;;;;;;4992982;28;20935;-67
2021/11/17 12:44:00;;;;;;;2.70;2.50;;;7.30;99.90;;;;;;4993937;28;20506;-67
2021/11/17 12:46:31;;;;;;;8.90;4.07;;;7.20;99.90;;;;;;4994295;28;20433;-67
2021/11/17 12:49:26;;;;;;;2.17;1.97;;;7.30;99.90;;;;;;4982931;28;20558;-67
2021/11/17 12:52:03;;;;;;;3.00;2.50;;;7.10;99.90;;;;;;5000814;28;20456;-67
2021/11/17 12:54:31;;;;;;;1.93;1.83;;;7.10;99.90;;;;;;4997218;28;20504;-67
2021/11/17 12:57:12;;;;;;;1.43;1.33;;;7.20;99.90;;;;;;4992685;28;20465;-67
2021/11/17 12:59:45;;;;;;;2.20;1.93;;;7.20;99.90;;;;;;4990938;28;20455;-66
2021/11/17 13:02:26;;;;;;;1.60;1.50;;;7.40;99.90;;;;;;4991909;28;20426;-67
2021/11/17 13:04:55;;;;;;;2.10;1.37;;;7.40;99.90;;;;;;4992461;28;20442;-67
2021/11/17 13:07:42;;;;;;;4.40;1.80;;;7.60;99.90;;;;;;4991790;28;20839;-66
2021/11/17 13:10:09;;;;;;;1.47;1.37;;;7.60;99.90;;;;;;4994159;28;20454;-66
2021/11/17 13:12:37;;;;;;;2.60;1.57;;;7.50;99.90;;;;;;4991813;28;20486;-66
2021/11/17 13:15:05;;;;;;;1.13;1.03;;;7.40;99.90;;;;;;4992710;28;20462;-67
2021/11/17 13:17:42;;;;;;;1.70;1.60;;;7.40;99.90;;;;;;4991418;28;20549;-67
2021/11/17 13:20:13;;;;;;;2.03;1.50;;;7.30;99.90;;;;;;4998359;28;20529;-67
2021/11/17 13:22:47;;;;;;;1.33;1.23;;;7.20;99.90;;;;;;4991696;28;20422;-67
2021/11/17 13:25:45;;;;;;;1.53;1.37;;;7.20;99.90;;;;;;4992694;28;20437;-67
2021/11/17 13:28:38;;;;;;;1.70;1.60;;;7.30;99.90;;;;;;4991257;28;20426;-66
2021/11/17 13:31:38;;;;;;;1.70;1.60;;;7.20;99.90;;;;;;4983903;28;20434;-67
2021/11/17 13:34:38;;;;;;;1.67;1.30;;;7.20;99.90;;;;;;4992052;28;20464;-67
2021/11/17 13:37:34;;;;;;;2.33;1.90;;;7.10;99.90;;;;;;4991602;28;20427;-67
2021/11/17 13:40:06;;;;;;;2.50;1.67;;;7.20;99.90;;;;;;5002188;28;20476;-67
2021/11/17 13:42:32;;;;;;;2.73;2.00;;;7.30;99.90;;;;;;4995282;28;20480;-66
2021/11/17 13:44:59;;;;;;;2.70;2.23;;;7.30;99.90;;;;;;4991012;28;20795;-67
2021/11/17 13:47:27;;;;;;;2.50;2.30;;;7.30;99.90;;;;;;4994902;28;20426;-67
2021/11/17 13:49:56;;;;;;;2.00;1.80;;;7.20;99.90;;;;;;4994824;28;20504;-67
2021/11/17 13:52:26;;;;;;;2.23;2.07;;;7.20;99.90;;;;;;4995234;28;20461;-67
2021/11/17 13:54:52;;;;;;;1.90;1.73;;;7.20;99.90;;;;;;4996825;28;20459;-67
2021/11/17 13:57:18;;;;;;;3.13;2.20;;;7.10;99.90;;;;;;4994904;28;20438;-66
2021/11/17 13:59:45;;;;;;;3.20;2.10;;;7.00;99.90;;;;;;4993607;28;20226;-67
2021/11/17 14:02:11;;;;;;;3.27;2.97;;;7.00;99.90;;;;;;4995040;28;20788;-67
2021/11/17 14:04:37;;;;;;;3.20;2.90;;;6.90;99.90;;;;;;4996155;28;20571;-67
2021/11/17 14:07:04;;;;;;;3.50;3.20;;;6.90;99.90;;;;;;4995028;28;20184;-67
2021/11/17 14:09:29;;;;;;;3.57;3.20;;;6.90;99.90;;;;;;4998870;28;20199;-67
2021/11/17 14:11:56;;;;;;;5.73;4.00;;;6.80;99.90;;;;;;4995759;28;20427;-67
2021/11/17 14:14:22;;;;;;;3.87;3.20;;;6.80;99.90;;;;;;4995405;28;20198;-67
2021/11/17 14:16:48;;;;;;;3.83;3.53;;;6.90;99.90;;;;;;4994673;28;20433;-67
2021/11/17 14:19:14;;;;;;;4.20;3.70;;;7.00;99.90;;;;;;4996216;28;21760;-65
2021/11/17 14:21:42;;;;;;;4.10;2.87;;;7.00;99.90;;;;;;4997910;28;20434;-66
2021/11/17 14:24:07;;;;;;;3.73;3.17;;;7.20;99.90;;;;;;4991456;28;20181;-67
2021/11/17 14:26:34;;;;;;;3.73;2.70;;;7.40;99.90;;;;;;4994741;28;20438;-66
2021/11/17 14:29:04;;;;;;;3.90;2.90;;;7.40;99.90;;;;;;4993674;28;20459;-66
2021/11/17 14:31:40;;;;;;;3.30;2.50;;;7.40;99.90;;;;;;4994181;28;20522;-66
2021/11/17 14:34:07;;;;;;;3.50;3.20;;;7.20;99.90;;;;;;4995524;28;20502;-67
2021/11/17 14:36:47;;;;;;;7.57;4.47;;;7.20;99.90;;;;;;4994309;28;20430;-67
2021/11/17 14:39:14;;;;;;;3.57;3.20;;;7.20;99.90;;;;;;4995899;28;20470;-66
2021/11/17 14:41:40;;;;;;;3.37;3.07;;;7.20;99.90;;;;;;4999538;28;20517;-67
2021/11/17 14:44:06;;;;;;;5.30;3.03;;;7.20;99.90;;;;;;4994902;28;21035;-67
2021/11/17 14:46:33;;;;;;;4.60;3.90;;;7.20;99.90;;;;;;4994492;28;20530;-67
2021/11/17 14:48:59;;;;;;;6.30;5.60;;;7.20;99.90;;;;;;4988569;28;20581;-66
2021/11/17 14:51:25;;;;;;;4.07;3.43;;;7.30;99.90;;;;;;4995491;28;21070;-66
2021/11/17 14:53:52;;;;;;;4.00;3.60;;;7.30;99.90;;;;;;4990814;28;20302;-67
2021/11/17 14:56:19;;;;;;;4.27;3.60;;;7.30;99.90;;;;;;4990255;28;20442;-66
2021/11/17 14:58:46;;;;;;;4.40;3.63;;;7.20;99.90;;;;;;4991068;28;20458;-67
2021/11/17 15:01:15;;;;;;;3.63;3.33;;;7.30;99.90;;;;;;4995928;28;20439;-67
2021/11/17 15:03:42;;;;;;;3.87;3.20;;;7.30;99.90;;;;;;4990647;28;20450;-68
2021/11/17 15:06:09;;;;;;;4.30;3.10;;;7.30;99.90;;;;;;4991711;28;20468;-66
2021/11/17 15:08:35;;;;;;;3.50;3.20;;;7.40;99.90;;;;;;4990423;28;20457;-67
2021/11/17 15:11:01;;;;;;;4.77;4.27;;;7.30;99.90;;;;;;4991605;28;21118;-66
2021/11/17 15:13:26;;;;;;;4.57;3.73;;;7.20;99.90;;;;;;4990980;28;20215;-67
2021/11/17 15:15:55;;;;;;;6.00;4.10;;;7.20;99.90;;;;;;4997266;28;20554;-66
2021/11/17 15:18:22;;;;;;;3.77;3.43;;;7.10;99.90;;;;;;4990045;28;20214;-67
2021/11/17 15:20:49;;;;;;;4.00;3.70;;;7.20;99.90;;;;;;4991713;28;21100;-67
2021/11/17 15:23:16;;;;;;;4.50;3.87;;;7.20;99.90;;;;;;4993972;28;20448;-65
2021/11/17 15:25:44;;;;;;;3.60;2.83;;;7.30;99.90;;;;;;4993341;28;20438;-67
2021/11/17 15:28:23;;;;;;;4.27;3.60;;;7.30;99.90;;;;;;4990208;28;20521;-66
2021/11/17 15:31:03;;;;;;;4.63;3.77;;;7.40;99.90;;;;;;5000146;28;20434;-67
2021/11/17 15:33:29;;;;;;;3.83;3.17;;;7.30;99.90;;;;;;4994142;28;20433;-67
2021/11/17 15:35:55;;;;;;;4.63;2.93;;;7.30;99.90;;;;;;4991365;28;20474;-67
2021/11/17 15:38:22;;;;;;;4.20;3.30;;;7.40;99.90;;;;;;4990902;28;21319;-67
2021/11/17 15:40:51;;;;;;;5.20;3.40;;;7.40;99.90;;;;;;5000443;28;20473;-67
2021/11/17 15:43:18;;;;;;;4.80;3.00;;;7.30;99.90;;;;;;4989652;28;20445;-67
2021/11/17 15:45:44;;;;;;;3.77;3.27;;;7.40;99.90;;;;;;4986311;28;20434;-67
2021/11/17 15:48:10;;;;;;;3.97;3.37;;;7.20;99.90;;;;;;4990177;28;20431;-67
2021/11/17 15:50:39;;;;;;;6.13;4.47;;;7.10;99.90;;;;;;4993666;28;20458;-67
2021/11/17 15:53:06;;;;;;;10.30;3.20;;;7.00;99.90;;;;;;4990273;28;20179;-67
2021/11/17 15:55:32;;;;;;;4.00;3.37;;;7.00;99.90;;;;;;4989637;28;20478;-67
2021/11/17 15:58:00;;;;;;;4.37;3.00;;;7.10;99.90;;;;;;4990064;28;20449;-67
2021/11/17 16:00:27;;;;;;;3.27;2.97;;;7.10;99.90;;;;;;4990008;28;20840;-67
2021/11/17 16:02:53;;;;;;;4.90;3.90;;;7.10;99.90;;;;;;4989627;28;20629;-70